Mingo Junction, Ohio
Current Conditions -  °F | °C
As of 11:26 AM on Wednesday 26 Nov 2014 (Local Time) from KHLG Reporting Station
Moderate Snow Moderate Snow  
Wind Chill: 31°   Ceiling: 800
Heat Index: 31°   Visibility: 0.25mi
Dew Point: 28°   Wind: 0mph
Humidity: 89%   Direction: NA
Pressure: 30.06"   Gusts: NA
Location:  40.32°N, 80.61°W
Report Text: KHLG 261626Z 00000KT 1/4SM R03/3000V3500FT SN FZFG SCT004 OVC008 M01/M02 A3006 RMK AO2 P0006 T10061022
Loading
Personal Weather Stations






























Interactive Weather Map New forecast layout! Learn more

10-Day Weather Forecast

Advertisements
Track Severe Weather on mobile